createdAt,value
2023-02-22T00:00:46.185Z,19.6
2023-02-22T00:21:07.080Z,19.6
2023-02-22T00:40:46.551Z,19.5
2023-02-22T01:00:46.133Z,19.4
2023-02-22T01:20:47.223Z,19.4
2023-02-22T01:40:46.217Z,19.4
2023-02-22T02:00:46.812Z,19.3
2023-02-22T02:20:46.261Z,19.4
2023-02-22T02:40:47.170Z,19.3
2023-02-22T03:00:50.787Z,19.3
2023-02-22T03:20:46.048Z,19.2
2023-02-22T03:40:46.970Z,19.2
2023-02-22T04:00:46.043Z,19.1
2023-02-22T04:20:46.587Z,19.1
2023-02-22T04:40:45.741Z,19.1
2023-02-22T05:01:06.822Z,19
2023-02-22T05:20:48.152Z,19
2023-02-22T05:40:46.363Z,19.1
2023-02-22T06:00:45.781Z,19.2
2023-02-22T06:20:46.257Z,19.2
2023-02-22T06:41:11.715Z,19.2
2023-02-22T07:01:10.412Z,19.2
2023-02-22T07:21:13.835Z,19.2
2023-02-22T07:41:11.990Z,19.2
2023-02-22T08:01:11.783Z,19.3
2023-02-22T08:21:18.554Z,19.4
2023-02-22T08:41:12.710Z,19.3
2023-02-22T09:01:12.907Z,19.4
2023-02-22T09:21:12.757Z,19.4
2023-02-22T09:41:10.114Z,19.5
2023-02-22T10:01:20.519Z,19.6
2023-02-22T10:21:13.129Z,19.6
2023-02-22T10:41:12.901Z,19.6
2023-02-22T11:01:16.509Z,19.8
2023-02-22T11:21:15.351Z,19.8
2023-02-22T11:41:11.056Z,19.8
2023-02-22T12:01:18.363Z,20
2023-02-22T12:21:12.066Z,20
2023-02-22T12:41:16.123Z,20.1
2023-02-22T13:01:16.368Z,20
2023-02-22T13:21:16.252Z,20.2
2023-02-22T13:41:12.404Z,20.1
2023-02-22T14:01:10.449Z,20.2
2023-02-22T14:21:12.721Z,20.2
2023-02-22T14:41:11.600Z,20.2
2023-02-22T15:01:11.687Z,20.2
2023-02-22T15:21:19.609Z,20.1
2023-02-22T15:41:12.022Z,20.1
2023-02-22T16:01:12.829Z,20.1
2023-02-22T16:21:11.963Z,20
2023-02-22T16:41:19.068Z,20
2023-02-22T17:00:49.982Z,20
2023-02-22T17:20:46.226Z,20
2023-02-22T17:40:45.775Z,20.1
2023-02-22T18:00:46.181Z,20.2
2023-02-22T18:20:46.867Z,20.3
2023-02-22T18:40:46.483Z,20.3
2023-02-22T19:00:46.241Z,20.3
2023-02-22T19:40:46.112Z,20.3
2023-02-22T20:00:46.431Z,20.2
2023-02-22T20:20:45.652Z,20.2
2023-02-22T20:40:46.154Z,20.2
2023-02-22T21:00:46.865Z,20.1
2023-02-22T21:20:46.078Z,20.1
2023-02-22T21:40:49.112Z,20
2023-02-22T22:00:45.763Z,19.9
2023-02-22T22:20:47.035Z,19.9
2023-02-22T22:40:51.461Z,19.8
2023-02-22T23:00:49.822Z,19.7
2023-02-22T23:20:46.591Z,19.6
2023-02-22T23:40:45.692Z,19.5
